sensor_id;sensor_type;location;lat;lon;timestamp;pressure;altitude;pressure_sealevel;temperature;humidity
48624;BME280;75490;45.802;16.114;2024-03-07T00:00:43;64722.00;;;8.71;72.57
48624;BME280;75490;45.802;16.114;2024-03-07T00:03:10;64716.13;;;8.71;72.85
48624;BME280;75490;45.802;16.114;2024-03-07T00:05:37;64714.50;;;8.69;73.05
48624;BME280;75490;45.802;16.114;2024-03-07T00:08:04;64717.69;;;8.67;73.03
48624;BME280;75490;45.802;16.114;2024-03-07T00:10:30;64709.63;;;8.62;73.90
48624;BME280;75490;45.802;16.114;2024-03-07T00:12:58;64706.97;;;8.62;73.79
48624;BME280;75490;45.802;16.114;2024-03-07T00:15:25;64709.09;;;8.59;74.19
48624;BME280;75490;45.802;16.114;2024-03-07T00:17:51;64705.88;;;8.61;73.92
48624;BME280;75490;45.802;16.114;2024-03-07T00:20:19;64698.91;;;8.52;74.66
48624;BME280;75490;45.802;16.114;2024-03-07T00:22:46;64696.22;;;8.52;74.79
48624;BME280;75490;45.802;16.114;2024-03-07T00:25:13;64702.66;;;8.53;74.94
48624;BME280;75490;45.802;16.114;2024-03-07T00:27:41;64700.50;;;8.51;73.93
48624;BME280;75490;45.802;16.114;2024-03-07T00:30:08;64697.31;;;8.55;73.88
48624;BME280;75490;45.802;16.114;2024-03-07T00:32:35;64698.34;;;8.51;73.49
48624;BME280;75490;45.802;16.114;2024-03-07T00:35:03;64697.81;;;8.51;73.32
48624;BME280;75490;45.802;16.114;2024-03-07T00:37:30;64691.94;;;8.50;73.00
48624;BME280;75490;45.802;16.114;2024-03-07T00:39:57;64706.94;;;8.57;72.53
48624;BME280;75490;45.802;16.114;2024-03-07T00:42:24;64702.66;;;8.53;73.29
48624;BME280;75490;45.802;16.114;2024-03-07T00:44:51;64695.13;;;8.46;73.79
48624;BME280;75490;45.802;16.114;2024-03-07T00:47:18;64695.13;;;8.46;73.56
48624;BME280;75490;45.802;16.114;2024-03-07T00:49:45;64691.91;;;8.43;74.63
48624;BME280;75490;45.802;16.114;2024-03-07T00:52:15;64675.28;;;8.32;75.15
48624;BME280;75490;45.802;16.114;2024-03-07T00:54:42;64680.63;;;8.32;75.94
48624;BME280;75490;45.802;16.114;2024-03-07T00:57:09;64676.28;;;8.28;76.50
48624;BME280;75490;45.802;16.114;2024-03-07T00:59:36;64672.53;;;8.25;76.55
48624;BME280;75490;45.802;16.114;2024-03-07T01:02:08;64669.84;;;8.22;77.05
48624;BME280;75490;45.802;16.114;2024-03-07T01:04:35;64659.16;;;8.19;76.88
48624;BME280;75490;45.802;16.114;2024-03-07T01:07:02;64657.53;;;8.15;77.53
48624;BME280;75490;45.802;16.114;2024-03-07T01:09:29;64655.88;;;8.09;78.51
48624;BME280;75490;45.802;16.114;2024-03-07T01:11:56;64655.34;;;8.08;78.33
48624;BME280;75490;45.802;16.114;2024-03-07T01:14:23;64649.47;;;8.08;78.41
48624;BME280;75490;45.802;16.114;2024-03-07T01:16:50;64651.59;;;8.07;78.08
48624;BME280;75490;45.802;16.114;2024-03-07T01:19:17;64653.19;;;8.06;78.69
48624;BME280;75490;45.802;16.114;2024-03-07T01:21:45;64646.78;;;8.05;78.96
48624;BME280;75490;45.802;16.114;2024-03-07T01:24:11;64645.69;;;7.99;78.63
48624;BME280;75490;45.802;16.114;2024-03-07T01:26:38;64654.25;;;8.02;78.02
48624;BME280;75490;45.802;16.114;2024-03-07T01:29:05;64639.25;;;7.98;77.23
48624;BME280;75490;45.802;16.114;2024-03-07T01:31:33;64637.63;;;7.94;78.07
48624;BME280;75490;45.802;16.114;2024-03-07T01:34:00;64626.91;;;7.87;78.89
48624;BME280;75490;45.802;16.114;2024-03-07T01:36:27;64621.00;;;7.81;79.78
48624;BME280;75490;45.802;16.114;2024-03-07T01:38:55;64620.47;;;7.78;80.87
48624;BME280;75490;45.802;16.114;2024-03-07T01:41:22;64609.19;;;7.70;81.96
48624;BME280;75490;45.802;16.114;2024-03-07T01:43:49;64608.09;;;7.64;83.68
48624;BME280;75490;45.802;16.114;2024-03-07T01:46:16;64597.38;;;7.59;85.08
48624;BME280;75490;45.802;16.114;2024-03-07T01:48:43;64590.91;;;7.53;86.14
48624;BME280;75490;45.802;16.114;2024-03-07T01:51:10;64592.53;;;7.52;87.28
48624;BME280;75490;45.802;16.114;2024-03-07T01:53:36;64587.69;;;7.44;88.12
48624;BME280;75490;45.802;16.114;2024-03-07T01:56:04;64580.19;;;7.42;89.58
48624;BME280;75490;45.802;16.114;2024-03-07T01:58:31;64571.06;;;7.34;91.51
48624;BME280;75490;45.802;16.114;2024-03-07T02:00:59;64565.69;;;7.29;93.37
48624;BME280;75490;45.802;16.114;2024-03-07T02:03:26;64557.66;;;7.21;94.98
48624;BME280;75490;45.802;16.114;2024-03-07T02:05:53;64558.69;;;7.17;96.53
48624;BME280;75490;45.802;16.114;2024-03-07T02:08:20;64551.19;;;7.12;98.49
48624;BME280;75490;45.802;16.114;2024-03-07T02:10:47;64549.56;;;7.11;99.68
48624;BME280;75490;45.802;16.114;2024-03-07T02:13:15;64538.34;;;7.03;100.00
48624;BME280;75490;45.802;16.114;2024-03-07T02:15:43;64539.91;;;6.99;100.00
48624;BME280;75490;45.802;16.114;2024-03-07T02:18:10;64529.22;;;6.94;100.00
48624;BME280;75490;45.802;16.114;2024-03-07T02:20:37;64535.09;;;6.95;100.00
48624;BME280;75490;45.802;16.114;2024-03-07T02:23:04;64530.28;;;6.93;100.00
48624;BME280;75490;45.802;16.114;2024-03-07T02:25:31;64528.63;;;6.89;100.00
48624;BME280;75490;45.802;16.114;2024-03-07T02:27:59;64521.13;;;6.82;100.00
48624;BME280;75490;45.802;16.114;2024-03-07T02:30:26;64513.66;;;6.80;100.00
48624;BME280;75490;45.802;16.114;2024-03-07T02:32:53;64518.44;;;6.79;100.00
48624;BME280;75490;45.802;16.114;2024-03-07T02:35:21;64521.66;;;6.80;100.00
48624;BME280;75490;45.802;16.114;2024-03-07T02:37:48;64511.47;;;6.72;100.00
48624;BME280;75490;45.802;16.114;2024-03-07T02:40:15;64510.38;;;6.71;100.00
48624;BME280;75490;45.802;16.114;2024-03-07T02:42:52;64514.16;;;6.75;100.00
48624;BME280;75490;45.802;16.114;2024-03-07T02:45:19;64509.31;;;6.70;100.00
48624;BME280;75490;45.802;16.114;2024-03-07T02:47:52;64510.94;;;6.74;100.00
48624;BME280;75490;45.802;16.114;2024-03-07T02:50:20;64510.41;;;6.74;100.00
48624;BME280;75490;45.802;16.114;2024-03-07T02:52:51;64513.06;;;6.71;100.00
48624;BME280;75490;45.802;16.114;2024-03-07T02:55:19;64506.13;;;6.72;100.00
48624;BME280;75490;45.802;16.114;2024-03-07T02:57:45;64514.69;;;6.75;100.00
48624;BME280;75490;45.802;16.114;2024-03-07T03:00:12;64509.91;;;6.76;100.00
48624;BME280;75490;45.802;16.114;2024-03-07T03:02:53;64512.56;;;6.76;100.00
48624;BME280;75490;45.802;16.114;2024-03-07T03:05:20;64512.56;;;6.76;100.00
48624;BME280;75490;45.802;16.114;2024-03-07T03:07:47;64515.25;;;6.78;100.00
48624;BME280;75490;45.802;16.114;2024-03-07T03:10:24;64525.94;;;6.84;100.00
48624;BME280;75490;45.802;16.114;2024-03-07T03:12:57;64519.00;;;6.85;100.00
48624;BME280;75490;45.802;16.114;2024-03-07T03:15:26;64523.81;;;6.84;100.00
48624;BME280;75490;45.802;16.114;2024-03-07T03:17:55;64519.53;;;6.83;100.00
48624;BME280;75490;45.802;16.114;2024-03-07T03:20:26;64514.72;;;6.81;100.00
48624;BME280;75490;45.802;16.114;2024-03-07T03:23:00;64520.59;;;6.81;100.00
48624;BME280;75490;45.802;16.114;2024-03-07T03:25:27;64522.22;;;6.83;100.00
48624;BME280;75490;45.802;16.114;2024-03-07T03:27:54;64517.91;;;6.78;100.00
48624;BME280;75490;45.802;16.114;2024-03-07T03:30:21;64515.75;;;6.76;100.00
48624;BME280;75490;45.802;16.114;2024-03-07T03:32:48;64516.31;;;6.77;100.00
48624;BME280;75490;45.802;16.114;2024-03-07T03:35:15;64512.03;;;6.75;100.00
48624;BME280;75490;45.802;16.114;2024-03-07T03:37:45;64507.22;;;6.73;100.00
48624;BME280;75490;45.802;16.114;2024-03-07T03:40:12;64512.00;;;6.73;100.00
48624;BME280;75490;45.802;16.114;2024-03-07T03:42:41;64506.13;;;6.72;100.00
48624;BME280;75490;45.802;16.114;2024-03-07T03:45:09;64502.34;;;6.64;100.00
48624;BME280;75490;45.802;16.114;2024-03-07T03:47:38;64503.44;;;6.65;100.00
48624;BME280;75490;45.802;16.114;2024-03-07T03:50:06;64507.19;;;6.68;100.00
48624;BME280;75490;45.802;16.114;2024-03-07T03:52:33;64503.97;;;6.65;100.00
48624;BME280;75490;45.802;16.114;2024-03-07T03:55:04;64495.38;;;6.57;100.00
48624;BME280;75490;45.802;16.114;2024-03-07T03:57:33;64498.06;;;6.60;100.00
48624;BME280;75490;45.802;16.114;2024-03-07T04:00:00;64494.28;;;6.56;100.00
48624;BME280;75490;45.802;16.114;2024-03-07T04:02:26;64498.59;;;6.60;100.00
48624;BME280;75490;45.802;16.114;2024-03-07T04:04:53;64495.38;;;6.57;100.00
48624;BME280;75490;45.802;16.114;2024-03-07T04:07:20;64493.75;;;6.53;100.00
48624;BME280;75490;45.802;16.114;2024-03-07T04:09:48;64493.25;;;6.55;100.00
48624;BME280;75490;45.802;16.114;2024-03-07T04:12:14;64495.38;;;6.57;100.00
48624;BME280;75490;45.802;16.114;2024-03-07T04:14:42;64488.44;;;6.53;100.00
48624;BME280;75490;45.802;16.114;2024-03-07T04:17:10;64487.34;;;6.52;100.00
48624;BME280;75490;45.802;16.114;2024-03-07T04:19:41;64486.28;;;6.51;100.00
48624;BME280;75490;45.802;16.114;2024-03-07T04:22:08;64484.09;;;6.47;100.00
48624;BME280;75490;45.802;16.114;2024-03-07T04:24:35;64480.88;;;6.43;100.00
48624;BME280;75490;45.802;16.114;2024-03-07T04:27:03;64485.69;;;6.43;100.00
48624;BME280;75490;45.802;16.114;2024-03-07T04:29:34;64479.81;;;6.40;100.00
48624;BME280;75490;45.802;16.114;2024-03-07T04:32:01;64483.56;;;6.46;100.00
48624;BME280;75490;45.802;16.114;2024-03-07T04:34:31;64479.28;;;6.42;100.00
48624;BME280;75490;45.802;16.114;2024-03-07T04:36:59;64481.41;;;6.44;100.00
48624;BME280;75490;45.802;16.114;2024-03-07T04:39:28;64477.69;;;6.40;100.00
48624;BME280;75490;45.802;16.114;2024-03-07T04:41:59;64481.94;;;6.39;100.00
48624;BME280;75490;45.802;16.114;2024-03-07T04:44:30;64483.03;;;6.46;100.00
48624;BME280;75490;45.802;16.114;2024-03-07T04:46:57;64476.63;;;6.45;100.00
48624;BME280;75490;45.802;16.114;2024-03-07T04:49:27;64472.91;;;6.41;100.00
48624;BME280;75490;45.802;16.114;2024-03-07T04:51:55;64470.19;;;6.36;100.00
48624;BME280;75490;45.802;16.114;2024-03-07T04:54:23;64475.00;;;6.38;100.00
48624;BME280;75490;45.802;16.114;2024-03-07T04:56:51;64472.84;;;6.36;100.00
48624;BME280;75490;45.802;16.114;2024-03-07T04:59:19;64466.97;;;6.33;100.00
48624;BME280;75490;45.802;16.114;2024-03-07T05:01:47;64464.84;;;6.33;100.00
48624;BME280;75490;45.802;16.114;2024-03-07T05:04:16;64468.56;;;6.32;100.00
48624;BME280;75490;45.802;16.114;2024-03-07T05:06:43;64465.88;;;6.32;100.00
48624;BME280;75490;45.802;16.114;2024-03-07T05:09:10;64472.84;;;6.36;100.00
48624;BME280;75490;45.802;16.114;2024-03-07T05:11:49;64468.59;;;6.37;100.00
48624;BME280;75490;45.802;16.114;2024-03-07T05:14:20;64472.88;;;6.38;100.00
48624;BME280;75490;45.802;16.114;2024-03-07T05:16:48;64469.66;;;6.38;100.00
48624;BME280;75490;45.802;16.114;2024-03-07T05:19:32;64478.19;;;6.36;100.00
48624;BME280;75490;45.802;16.114;2024-03-07T05:22:00;64472.34;;;6.38;100.00
48624;BME280;75490;45.802;16.114;2024-03-07T05:24:26;64477.13;;;6.37;100.00
48624;BME280;75490;45.802;16.114;2024-03-07T05:26:53;64475.56;;;6.41;100.00
48624;BME280;75490;45.802;16.114;2024-03-07T05:29:20;64472.91;;;6.41;100.00
48624;BME280;75490;45.802;16.114;2024-03-07T05:31:47;64477.16;;;6.40;100.00
48624;BME280;75490;45.802;16.114;2024-03-07T05:34:15;64479.28;;;6.45;100.00
48624;BME280;75490;45.802;16.114;2024-03-07T05:36:46;64477.16;;;6.40;100.00
48624;BME280;75490;45.802;16.114;2024-03-07T05:39:14;64478.75;;;6.41;100.00
48624;BME280;75490;45.802;16.114;2024-03-07T05:41:42;64485.72;;;6.48;100.00
48624;BME280;75490;45.802;16.114;2024-03-07T05:44:09;64480.94;;;6.51;100.00
48624;BME280;75490;45.802;16.114;2024-03-07T05:46:40;64493.25;;;6.55;100.00
48624;BME280;75490;45.802;16.114;2024-03-07T05:49:13;64496.44;;;6.58;100.00
48624;BME280;75490;45.802;16.114;2024-03-07T05:51:41;64497.00;;;6.61;100.00
48624;BME280;75490;45.802;16.114;2024-03-07T05:54:11;64502.34;;;6.64;100.00
48624;BME280;75490;45.802;16.114;2024-03-07T05:56:40;64503.97;;;6.65;100.00
48624;BME280;75490;45.802;16.114;2024-03-07T05:59:08;64507.19;;;6.68;100.00
48624;BME280;75490;45.802;16.114;2024-03-07T06:01:38;64504.53;;;6.71;100.00
48624;BME280;75490;45.802;16.114;2024-03-07T06:04:06;64513.63;;;6.74;100.00
48624;BME280;75490;45.802;16.114;2024-03-07T06:06:34;64518.44;;;6.76;100.00
48624;BME280;75490;45.802;16.114;2024-03-07T06:09:03;64510.44;;;6.76;100.00
48624;BME280;75490;45.802;16.114;2024-03-07T06:11:37;64516.88;;;6.83;100.00
48624;BME280;75490;45.802;16.114;2024-03-07T06:14:05;64527.56;;;6.88;100.00
48624;BME280;75490;45.802;16.114;2024-03-07T06:16:35;64530.78;;;6.91;100.00
48624;BME280;75490;45.802;16.114;2024-03-07T06:19:03;64528.13;;;6.91;100.00
48624;BME280;75490;45.802;16.114;2024-03-07T06:21:30;64540.97;;;6.98;100.00
48624;BME280;75490;45.802;16.114;2024-03-07T06:24:00;64539.91;;;6.99;100.00
48624;BME280;75490;45.802;16.114;2024-03-07T06:26:35;64538.34;;;7.03;100.00
48624;BME280;75490;45.802;16.114;2024-03-07T06:29:16;64537.25;;;7.02;100.00
48624;BME280;75490;45.802;16.114;2024-03-07T06:31:44;64547.97;;;7.07;100.00
48624;BME280;75490;45.802;16.114;2024-03-07T06:34:13;64549.03;;;7.08;100.00
48624;BME280;75490;45.802;16.114;2024-03-07T06:36:40;64548.50;;;7.07;100.00
48624;BME280;75490;45.802;16.114;2024-03-07T06:39:09;64549.56;;;7.11;100.00
48624;BME280;75490;45.802;16.114;2024-03-07T06:41:36;64563.50;;;7.19;100.00
48624;BME280;75490;45.802;16.114;2024-03-07T06:44:03;64551.19;;;7.12;100.00
48624;BME280;75490;45.802;16.114;2024-03-07T06:46:30;64554.94;;;7.16;100.00
48624;BME280;75490;45.802;16.114;2024-03-07T06:49:00;64567.81;;;7.23;100.00
48624;BME280;75490;45.802;16.114;2024-03-07T06:51:27;64559.81;;;7.23;100.00
48624;BME280;75490;45.802;16.114;2024-03-07T06:53:55;64570.47;;;7.23;100.00
48624;BME280;75490;45.802;16.114;2024-03-07T06:56:22;64556.59;;;7.25;100.00
48624;BME280;75490;45.802;16.114;2024-03-07T06:58:50;64560.84;;;7.19;100.00
48624;BME280;75490;45.802;16.114;2024-03-07T07:01:17;64560.88;;;7.22;100.00
48624;BME280;75490;45.802;16.114;2024-03-07T07:03:46;64563.00;;;7.26;100.00
48624;BME280;75490;45.802;16.114;2024-03-07T07:06:14;64556.59;;;7.23;100.00
48624;BME280;75490;45.802;16.114;2024-03-07T07:08:41;64585.00;;;7.42;100.00
48624;BME280;75490;45.802;16.114;2024-03-07T07:11:08;64568.94;;;7.34;100.00
48624;BME280;75490;45.802;16.114;2024-03-07T07:13:34;64579.63;;;7.34;100.00
48624;BME280;75490;45.802;16.114;2024-03-07T07:16:03;64583.94;;;7.43;100.00
48624;BME280;75490;45.802;16.114;2024-03-07T07:18:30;64580.72;;;7.38;100.00
48624;BME280;75490;45.802;16.114;2024-03-07T07:20:57;64590.91;;;7.47;100.00
48624;BME280;75490;45.802;16.114;2024-03-07T07:23:24;64598.41;;;7.55;100.00
48624;BME280;75490;45.802;16.114;2024-03-07T07:25:51;64587.72;;;7.49;100.00
48624;BME280;75490;45.802;16.114;2024-03-07T07:28:18;64589.34;;;7.51;100.00
48624;BME280;75490;45.802;16.114;2024-03-07T07:30:45;64601.63;;;7.55;100.00
48624;BME280;75490;45.802;16.114;2024-03-07T07:33:12;64599.00;;;7.60;100.00
48624;BME280;75490;45.802;16.114;2024-03-07T07:35:40;64587.69;;;7.44;100.00
48624;BME280;75490;45.802;16.114;2024-03-07T07:38:07;64581.28;;;7.43;100.00
48624;BME280;75490;45.802;16.114;2024-03-07T07:40:36;64583.38;;;7.40;100.00
48624;BME280;75490;45.802;16.114;2024-03-07T07:43:03;64583.94;;;7.43;100.00
48624;BME280;75490;45.802;16.114;2024-03-07T07:45:30;64598.38;;;7.52;100.00
48624;BME280;75490;45.802;16.114;2024-03-07T07:47:59;64590.38;;;7.52;100.00
48624;BME280;75490;45.802;16.114;2024-03-07T07:50:26;64605.41;;;7.61;100.00
48624;BME280;75490;45.802;16.114;2024-03-07T07:52:55;64607.56;;;7.66;100.00
48624;BME280;75490;45.802;16.114;2024-03-07T07:55:27;64616.66;;;7.69;100.00
48624;BME280;75490;45.802;16.114;2024-03-07T07:57:58;64625.25;;;7.80;100.00
48624;BME280;75490;45.802;16.114;2024-03-07T08:00:25;64636.00;;;7.90;100.00
48624;BME280;75490;45.802;16.114;2024-03-07T08:02:57;64641.38;;;7.95;100.00
48624;BME280;75490;45.802;16.114;2024-03-07T08:05:25;64623.16;;;7.83;100.00
48624;BME280;75490;45.802;16.114;2024-03-07T08:07:56;64632.81;;;7.92;100.00
48624;BME280;75490;45.802;16.114;2024-03-07T08:10:25;64638.72;;;7.98;100.00
48624;BME280;75490;45.802;16.114;2024-03-07T08:12:52;64648.38;;;8.04;100.00
48624;BME280;75490;45.802;16.114;2024-03-07T08:15:19;64637.09;;;7.91;100.00
48624;BME280;75490;45.802;16.114;2024-03-07T08:17:47;64639.22;;;7.93;100.00
48624;BME280;75490;45.802;16.114;2024-03-07T08:20:16;64609.19;;;7.70;100.00
48624;BME280;75490;45.802;16.114;2024-03-07T08:22:44;64608.66;;;7.69;100.00
48624;BME280;75490;45.802;16.114;2024-03-07T08:25:13;64628.47;;;7.78;100.00
48624;BME280;75490;45.802;16.114;2024-03-07T08:27:42;64626.88;;;7.79;100.00
48624;BME280;75490;45.802;16.114;2024-03-07T08:30:10;64622.59;;;7.82;100.00
48624;BME280;75490;45.802;16.114;2024-03-07T08:32:42;64615.63;;;7.76;100.00
48624;BME280;75490;45.802;16.114;2024-03-07T08:37:49;64618.28;;;7.73;100.00
48624;BME280;75490;45.802;16.114;2024-03-07T08:40:29;64615.13;;;7.78;100.00
48624;BME280;75490;45.802;16.114;2024-03-07T08:43:18;64601.63;;;7.58;100.00
48624;BME280;75490;45.802;16.114;2024-03-07T08:45:48;64603.81;;;7.65;100.00
48624;BME280;75490;45.802;16.114;2024-03-07T08:48:15;64607.00;;;7.63;100.00
48624;BME280;75490;45.802;16.114;2024-03-07T08:50:43;64609.16;;;7.65;100.00
48624;BME280;75490;45.802;16.114;2024-03-07T08:53:09;64624.22;;;7.84;100.00
48624;BME280;75490;45.802;16.114;2024-03-07T08:55:41;64644.63;;;8.03;100.00
48624;BME280;75490;45.802;16.114;2024-03-07T08:58:12;64633.31;;;7.88;100.00
48624;BME280;75490;45.802;16.114;2024-03-07T09:00:39;64625.78;;;7.80;100.00
48624;BME280;75490;45.802;16.114;2024-03-07T09:03:06;64621.00;;;7.78;100.00
48624;BME280;75490;45.802;16.114;2024-03-07T09:05:36;64627.41;;;7.82;100.00
48624;BME280;75490;45.802;16.114;2024-03-07T09:08:03;64627.41;;;7.82;100.00
48624;BME280;75490;45.802;16.114;2024-03-07T09:10:30;64616.69;;;7.72;100.00
48624;BME280;75490;45.802;16.114;2024-03-07T09:12:57;64618.31;;;7.76;100.00
48624;BME280;75490;45.802;16.114;2024-03-07T09:15:24;64624.75;;;7.84;100.00
48624;BME280;75490;45.802;16.114;2024-03-07T09:17:51;64638.69;;;7.90;100.00
48624;BME280;75490;45.802;16.114;2024-03-07T09:20:18;64651.59;;;8.07;100.00
48624;BME280;75490;45.802;16.114;2024-03-07T09:22:47;64652.13;;;8.05;100.00
48624;BME280;75490;45.802;16.114;2024-03-07T09:25:20;64655.91;;;8.11;100.00
48624;BME280;75490;45.802;16.114;2024-03-07T09:27:47;64656.44;;;8.14;100.00
48624;BME280;75490;45.802;16.114;2024-03-07T09:30:14;64690.81;;;8.42;100.00
48624;BME280;75490;45.802;16.114;2024-03-07T09:32:45;64718.25;;;8.75;100.00
48624;BME280;75490;45.802;16.114;2024-03-07T09:35:12;64724.69;;;8.76;100.00
48624;BME280;75490;45.802;16.114;2024-03-07T09:37:40;64722.00;;;8.76;100.00
48624;BME280;75490;45.802;16.114;2024-03-07T09:40:08;64716.59;;;8.64;100.00
48624;BME280;75490;45.802;16.114;2024-03-07T09:42:42;64695.69;;;8.54;100.00
48624;BME280;75490;45.802;16.114;2024-03-07T09:45:14;64662.38;;;8.23;100.00
48624;BME280;75490;45.802;16.114;2024-03-07T09:47:44;64679.00;;;8.31;100.00
48624;BME280;75490;45.802;16.114;2024-03-07T09:50:12;64704.84;;;8.60;100.00
48624;BME280;75490;45.802;16.114;2024-03-07T09:52:41;64669.34;;;8.27;100.00
48624;BME280;75490;45.802;16.114;2024-03-07T09:55:08;64661.84;;;8.19;100.00
48624;BME280;75490;45.802;16.114;2024-03-07T09:57:35;64681.16;;;8.33;100.00
48624;BME280;75490;45.802;16.114;2024-03-07T10:00:04;64733.31;;;8.89;100.00
48624;BME280;75490;45.802;16.114;2024-03-07T10:02:33;64726.28;;;8.75;100.00
48624;BME280;75490;45.802;16.114;2024-03-07T10:05:04;64727.94;;;8.82;100.00
48624;BME280;75490;45.802;16.114;2024-03-07T10:07:34;64719.34;;;8.74;100.00
48624;BME280;75490;45.802;16.114;2024-03-07T10:10:01;64701.06;;;8.57;100.00
48624;BME280;75490;45.802;16.114;2024-03-07T10:12:36;64724.16;;;8.73;100.00
48624;BME280;75490;45.802;16.114;2024-03-07T10:15:05;64696.78;;;8.55;100.00
48624;BME280;75490;45.802;16.114;2024-03-07T10:17:33;64710.19;;;8.65;100.00
48624;BME280;75490;45.802;16.114;2024-03-07T10:19:59;64704.28;;;8.62;100.00
48624;BME280;75490;45.802;16.114;2024-03-07T10:22:27;64717.72;;;8.72;100.00
48624;BME280;75490;45.802;16.114;2024-03-07T10:24:56;64688.72;;;8.45;100.00
48624;BME280;75490;45.802;16.114;2024-03-07T10:27:23;64707.47;;;8.55;100.00
48624;BME280;75490;45.802;16.114;2024-03-07T10:29:54;64692.44;;;8.48;100.00
48624;BME280;75490;45.802;16.114;2024-03-07T10:32:22;64703.72;;;8.54;100.00
48624;BME280;75490;45.802;16.114;2024-03-07T10:34:53;64698.91;;;8.54;100.00
48624;BME280;75490;45.802;16.114;2024-03-07T10:37:21;64684.41;;;8.41;100.00
48624;BME280;75490;45.802;16.114;2024-03-07T10:39:48;64703.19;;;8.56;100.00
48624;BME280;75490;45.802;16.114;2024-03-07T10:42:18;64724.16;;;8.78;100.00
48624;BME280;75490;45.802;16.114;2024-03-07T10:44:47;64709.09;;;8.62;100.00
48624;BME280;75490;45.802;16.114;2024-03-07T10:47:19;64718.25;;;8.70;100.00
48624;BME280;75490;45.802;16.114;2024-03-07T10:52:28;64718.81;;;8.73;100.00
48624;BME280;75490;45.802;16.114;2024-03-07T10:57:51;64730.09;;;8.84;100.00
48624;BME280;75490;45.802;16.114;2024-03-07T11:00:26;64758.56;;;9.11;100.00
48624;BME280;75490;45.802;16.114;2024-03-07T11:02:57;64775.78;;;9.27;100.00
48624;BME280;75490;45.802;16.114;2024-03-07T11:05:26;64776.31;;;9.25;100.00
48624;BME280;75490;45.802;16.114;2024-03-07T11:07:59;64782.22;;;9.33;100.00
48624;BME280;75490;45.802;16.114;2024-03-07T11:10:30;64792.47;;;9.43;100.00
48624;BME280;75490;45.802;16.114;2024-03-07T11:12:58;64809.66;;;9.59;100.00
48624;BME280;75490;45.802;16.114;2024-03-07T11:15:26;64803.19;;;9.48;99.12
48624;BME280;75490;45.802;16.114;2024-03-07T11:17:54;64797.28;;;9.47;99.43
48624;BME280;75490;45.802;16.114;2024-03-07T11:20:23;64798.91;;;9.49;98.26
48624;BME280;75490;45.802;16.114;2024-03-07T11:22:51;64787.06;;;9.35;97.11
48624;BME280;75490;45.802;16.114;2024-03-07T11:25:19;64801.56;;;9.46;98.11
48624;BME280;75490;45.802;16.114;2024-03-07T11:28:00;64799.44;;;9.49;97.63
48624;BME280;75490;45.802;16.114;2024-03-07T11:30:27;64796.75;;;9.49;96.13
48624;BME280;75490;45.802;16.114;2024-03-07T11:32:54;64809.66;;;9.56;93.74
48624;BME280;75490;45.802;16.114;2024-03-07T11:35:33;64794.59;;;9.42;94.59
48624;BME280;75490;45.802;16.114;2024-03-07T11:38:07;64798.34;;;9.48;92.94
48624;BME280;75490;45.802;16.114;2024-03-07T11:43:02;64799.97;;;9.50;91.87
48624;BME280;75490;45.802;16.114;2024-03-07T11:45:32;64798.34;;;9.48;91.46
48624;BME280;75490;45.802;16.114;2024-03-07T11:48:06;64808.03;;;9.52;91.47
48624;BME280;75490;45.802;16.114;2024-03-07T11:50:36;64792.47;;;9.43;91.91
48624;BME280;75490;45.802;16.114;2024-03-07T11:53:04;64813.94;;;9.58;91.85
48624;BME280;75490;45.802;16.114;2024-03-07T11:55:34;64822.53;;;9.66;89.55
48624;BME280;75490;45.802;16.114;2024-03-07T11:58:17;64834.41;;;9.80;88.51
48624;BME280;75490;45.802;16.114;2024-03-07T12:00:45;64794.59;;;9.42;86.72
48624;BME280;75490;45.802;16.114;2024-03-07T12:03:16;64803.22;;;9.53;87.41
48624;BME280;75490;45.802;16.114;2024-03-07T12:05:50;64809.09;;;9.51;87.68
48624;BME280;75490;45.802;16.114;2024-03-07T12:08:18;64819.84;;;9.63;85.53
48624;BME280;75490;45.802;16.114;2024-03-07T12:10:49;64804.78;;;9.49;88.65
48624;BME280;75490;45.802;16.114;2024-03-07T12:13:22;64822.00;;;9.66;88.71
48624;BME280;75490;45.802;16.114;2024-03-07T12:15:51;64820.41;;;9.67;88.73
48624;BME280;75490;45.802;16.114;2024-03-07T12:18:19;64824.19;;;9.75;87.64
48624;BME280;75490;45.802;16.114;2024-03-07T12:20:47;64816.66;;;9.66;86.17
48624;BME280;75490;45.802;16.114;2024-03-07T12:23:18;64823.09;;;9.72;88.48
48624;BME280;75490;45.802;16.114;2024-03-07T12:25:46;64817.75;;;9.72;87.10
48624;BME280;75490;45.802;16.114;2024-03-07T12:28:13;64863.44;;;10.07;86.92
48624;BME280;75490;45.802;16.114;2024-03-07T12:30:50;64856.47;;;10.03;83.91
48624;BME280;75490;45.802;16.114;2024-03-07T12:33:18;64857.53;;;10.04;82.71
48624;BME280;75490;45.802;16.114;2024-03-07T12:35:49;64888.22;;;10.33;82.68
48624;BME280;75490;45.802;16.114;2024-03-07T12:38:19;64896.28;;;10.41;82.33
48624;BME280;75490;45.802;16.114;2024-03-07T12:40:46;64910.28;;;10.54;80.27
48624;BME280;75490;45.802;16.114;2024-03-07T12:43:19;64901.16;;;10.48;79.70
48624;BME280;75490;45.802;16.114;2024-03-07T12:45:50;64864.00;;;10.13;79.79
48624;BME280;75490;45.802;16.114;2024-03-07T12:48:20;64880.13;;;10.20;80.71
48624;BME280;75490;45.802;16.114;2024-03-07T12:50:51;64863.44;;;10.07;80.43
48624;BME280;75490;45.802;16.114;2024-03-07T12:53:22;64840.84;;;9.88;79.48
48624;BME280;75490;45.802;16.114;2024-03-07T12:55:50;64840.31;;;9.88;80.13
48624;BME280;75490;45.802;16.114;2024-03-07T12:58:18;64864.53;;;10.08;78.20
48624;BME280;75490;45.802;16.114;2024-03-07T13:00:52;64805.88;;;9.53;78.78
48624;BME280;75490;45.802;16.114;2024-03-07T13:03:22;64838.69;;;9.84;79.22
48624;BME280;75490;45.802;16.114;2024-03-07T13:05:49;64861.31;;;10.10;79.09
48624;BME280;75490;45.802;16.114;2024-03-07T13:08:16;64877.97;;;10.18;78.32
48624;BME280;75490;45.802;16.114;2024-03-07T13:10:43;64864.53;;;10.13;77.53